This is the latest recevied weather packets stored in our database for station/object DB0SWS-13. If no packets are shown the sender has not sent any weather packets the latest 10 day(s).
| Time | Temp. | Humidity | Pressure | Rain* | Wind** | Luminosity | Snow |
|---|---|---|---|---|---|---|---|
| 1787436407 | 13.89° C | 66% | 1026 hPa | - | - | - | - |
| 1787435507 | 13.89° C | 65% | 1025.9 hPa | - | - | - | - |
| 1787434607 | 13.89° C | 65% | 1025.9 hPa | - | - | - | - |
| 1787433707 | 14.44° C | 63% | 1026 hPa | - | - | - | - |
| 1787432807 | 14.44° C | 63% | 1026 hPa | - | - | - | - |
| 1787431907 | 14.44° C | 62% | 1025.9 hPa | - | - | - | - |
| 1787431006 | 15° C | 63% | 1026 hPa | - | - | - | - |
| 1787430106 | 15° C | 63% | 1025.9 hPa | - | - | - | - |
| 1787429206 | 15.56° C | 61% | 1025.9 hPa | - | - | - | - |
| 1787428306 | 15.56° C | 60% | 1025.8 hPa | - | - | - | - |
| 1787427406 | 16.11° C | 59% | 1025.7 hPa | - | - | - | - |
| 1787426506 | 16.67° C | 58% | 1025.6 hPa | - | - | - | - |
| 1787425606 | 17.22° C | 57% | 1025.5 hPa | - | - | - | - |
| 1787424706 | 17.22° C | 56% | 1025.3 hPa | - | - | - | - |
| 1787423806 | 17.78° C | 55% | 1025 hPa | - | - | - | - |
| 1787422905 | 18.89° C | 53% | 1024.9 hPa | - | - | - | - |
| 1787422005 | 19.44° C | 50% | 1024.6 hPa | - | - | - | - |
| 1787421105 | 20° C | 48% | 1024.6 hPa | - | - | - | - |
| 1787420205 | 21.67° C | 42% | 1024.6 hPa | - | - | - | - |
| 1787419304 | 31.11° C | 24% | 1024.4 hPa | - | - | - | - |
| 1787418407 | 25° C | 35% | 1024.4 hPa | - | - | - | - |
| 1787417507 | 23.89° C | 37% | 1024.4 hPa | - | - | - | - |
| 1787416607 | 23.33° C | 38% | 1024.4 hPa | - | - | - | - |
| 1787415707 | 21.67° C | 43% | 1024.3 hPa | - | - | - | - |
| 1787414806 | 21.67° C | 45% | 1024.4 hPa | - | - | - | - |
* Rain since midnight (hover to see other rain measurements)
** Current wind speed in m/s (hover to see current wind gust speed)